createdAt,value
2022-10-19T00:00:17.437Z,6.54
2022-10-19T00:01:17.413Z,6.51
2022-10-19T00:02:17.541Z,6.57
2022-10-19T00:03:20.778Z,6.59
2022-10-19T00:04:17.400Z,6.60
2022-10-19T00:05:17.375Z,6.57
2022-10-19T00:06:17.390Z,6.57
2022-10-19T00:07:17.351Z,6.59
2022-10-19T00:08:17.353Z,6.57
2022-10-19T00:09:17.388Z,6.57
2022-10-19T00:10:17.329Z,6.51
2022-10-19T00:11:17.308Z,6.48
2022-10-19T00:12:17.312Z,6.49
2022-10-19T00:13:17.284Z,6.46
2022-10-19T00:14:17.289Z,6.51
2022-10-19T00:15:17.292Z,6.54
2022-10-19T00:16:17.307Z,6.49
2022-10-19T00:17:17.246Z,6.48
2022-10-19T00:18:17.243Z,6.45
2022-10-19T00:19:17.221Z,6.42
2022-10-19T00:20:17.230Z,6.39
2022-10-19T00:21:17.242Z,6.42
2022-10-19T00:22:17.218Z,6.39
2022-10-19T00:23:17.175Z,6.41
2022-10-19T00:24:17.200Z,6.42
2022-10-19T00:25:17.156Z,6.41
2022-10-19T00:26:17.158Z,6.36
2022-10-19T00:27:17.163Z,6.39
2022-10-19T00:28:17.149Z,6.41
2022-10-19T00:29:17.111Z,6.42
2022-10-19T00:30:17.120Z,6.38
2022-10-19T00:31:17.155Z,6.36
2022-10-19T00:32:17.101Z,6.30
2022-10-19T00:33:17.103Z,6.30
2022-10-19T00:34:17.077Z,6.33
2022-10-19T00:35:17.051Z,6.27
2022-10-19T00:36:17.052Z,6.26
2022-10-19T00:37:17.062Z,6.26
2022-10-19T00:38:17.040Z,6.22
2022-10-19T00:39:19.201Z,6.24
2022-10-19T00:40:17.009Z,6.24
2022-10-19T00:41:16.982Z,6.33
2022-10-19T00:42:17.008Z,6.31
2022-10-19T00:43:16.996Z,6.30
2022-10-19T00:44:16.976Z,6.28
2022-10-19T00:45:16.983Z,6.31
2022-10-19T00:46:16.954Z,6.33
2022-10-19T00:47:16.923Z,6.33
2022-10-19T00:48:16.936Z,6.33
2022-10-19T00:49:16.903Z,6.30
2022-10-19T00:50:16.907Z,6.26
2022-10-19T00:51:16.944Z,6.30
2022-10-19T00:52:16.889Z,6.27
2022-10-19T00:53:16.862Z,6.24
2022-10-19T00:54:16.865Z,6.22
2022-10-19T00:55:16.856Z,6.31
2022-10-19T00:56:16.844Z,6.35
2022-10-19T00:57:16.844Z,6.36
2022-10-19T00:58:16.821Z,6.30
2022-10-19T00:59:16.799Z,6.33
2022-10-19T01:00:16.808Z,6.35
2022-10-19T01:01:16.824Z,6.26
2022-10-19T01:02:16.783Z,6.20
2022-10-19T01:03:16.794Z,6.19
2022-10-19T01:04:16.760Z,6.14
2022-10-19T01:05:16.733Z,6.09
2022-10-19T01:06:16.750Z,6.02
2022-10-19T01:07:16.719Z,6.01
2022-10-19T01:08:16.743Z,5.99
2022-10-19T01:09:16.731Z,5.94
2022-10-19T01:10:16.695Z,5.94
2022-10-19T01:11:16.685Z,5.93
2022-10-19T01:12:16.671Z,5.91
2022-10-19T01:13:16.643Z,5.91
2022-10-19T01:14:16.648Z,5.98
2022-10-19T01:15:16.661Z,5.98
2022-10-19T01:16:16.633Z,6.02
2022-10-19T01:17:16.630Z,6.04
2022-10-19T01:18:16.610Z,6.07
2022-10-19T01:19:16.586Z,6.08
2022-10-19T01:20:16.586Z,6.16
2022-10-19T01:21:16.587Z,6.26
2022-10-19T01:22:16.564Z,6.27
2022-10-19T01:23:16.552Z,6.24
2022-10-19T01:24:16.553Z,6.22
2022-10-19T01:25:16.517Z,6.19
2022-10-19T01:26:16.528Z,6.16
2022-10-19T01:27:16.522Z,6.16
2022-10-19T01:28:16.509Z,6.12
2022-10-19T01:29:16.501Z,6.17
2022-10-19T01:30:16.476Z,6.14
2022-10-19T01:31:16.509Z,6.14
2022-10-19T01:32:16.450Z,6.07
2022-10-19T01:33:16.479Z,5.99
2022-10-19T01:34:16.426Z,5.97
2022-10-19T01:35:16.427Z,5.98
2022-10-19T01:36:16.434Z,5.98
2022-10-19T01:37:16.405Z,5.94
2022-10-19T01:38:16.383Z,5.93
2022-10-19T01:39:16.411Z,5.97
2022-10-19T01:40:16.366Z,5.98
2022-10-19T01:41:16.376Z,5.90
2022-10-19T01:42:16.343Z,5.93
2022-10-19T01:43:16.342Z,5.87
2022-10-19T01:44:16.314Z,5.80
2022-10-19T01:45:16.370Z,5.75
2022-10-19T01:46:16.298Z,5.80
2022-10-19T01:47:16.319Z,5.75
2022-10-19T01:48:16.275Z,5.73
2022-10-19T01:49:16.281Z,5.72
2022-10-19T01:50:16.277Z,5.69
2022-10-19T01:51:16.300Z,5.66
2022-10-19T01:52:16.245Z,5.62
2022-10-19T01:53:16.245Z,5.62
2022-10-19T01:54:16.216Z,5.59
2022-10-19T01:55:16.221Z,5.61
2022-10-19T01:56:16.205Z,5.59
2022-10-19T01:57:16.261Z,5.69
2022-10-19T01:58:16.170Z,5.72
2022-10-19T01:59:16.180Z,5.73
2022-10-19T02:00:16.150Z,5.79
2022-10-19T02:01:16.161Z,5.79
2022-10-19T02:02:16.135Z,5.87
2022-10-19T02:03:16.171Z,5.91
2022-10-19T02:04:16.114Z,5.94
2022-10-19T02:05:16.115Z,5.98
2022-10-19T02:06:16.091Z,5.97
2022-10-19T02:07:16.093Z,5.98
2022-10-19T02:08:16.068Z,6.04
2022-10-19T02:09:16.113Z,6.05
2022-10-19T02:10:16.086Z,6.07
2022-10-19T02:11:16.052Z,6.07
2022-10-19T02:12:16.027Z,6.09
2022-10-19T02:13:16.041Z,6.14
2022-10-19T02:14:15.999Z,6.16
2022-10-19T02:15:19.453Z,6.19
2022-10-19T02:16:15.983Z,6.22
2022-10-19T02:17:16.000Z,6.24
2022-10-19T02:18:15.971Z,6.27
2022-10-19T02:19:15.977Z,6.26
2022-10-19T02:20:15.956Z,6.20
2022-10-19T02:21:15.974Z,6.16
2022-10-19T02:22:15.913Z,6.19
2022-10-19T02:23:15.927Z,6.26
2022-10-19T02:24:15.896Z,6.26
2022-10-19T02:25:15.901Z,6.26
2022-10-19T02:26:15.871Z,6.27
2022-10-19T02:27:15.910Z,6.22
2022-10-19T02:28:15.970Z,6.19
2022-10-19T02:29:15.862Z,6.14
2022-10-19T02:30:15.848Z,6.14
2022-10-19T02:31:15.842Z,6.14
2022-10-19T02:32:15.816Z,6.12
2022-10-19T02:33:15.842Z,6.11
2022-10-19T02:34:15.799Z,6.11
2022-10-19T02:35:15.793Z,6.09
2022-10-19T02:36:15.775Z,6.09
2022-10-19T02:37:15.841Z,6.08
2022-10-19T02:38:15.765Z,6.08
2022-10-19T02:39:15.802Z,6.02
2022-10-19T02:40:15.739Z,6.01
2022-10-19T02:41:15.734Z,5.99
2022-10-19T02:42:15.707Z,5.99
2022-10-19T02:43:15.719Z,6.02
2022-10-19T02:44:15.690Z,6.04
2022-10-19T02:45:15.718Z,6.08
2022-10-19T02:46:15.669Z,6.12
2022-10-19T02:47:15.670Z,6.09
2022-10-19T02:48:15.658Z,6.14
2022-10-19T02:49:15.658Z,6.22
2022-10-19T02:50:15.631Z,6.27
2022-10-19T02:51:15.668Z,6.31
2022-10-19T02:52:15.596Z,6.35
2022-10-19T02:53:15.603Z,6.33
2022-10-19T02:54:15.588Z,6.30
2022-10-19T02:55:15.582Z,6.30
2022-10-19T02:56:15.568Z,6.28
2022-10-19T02:57:15.611Z,6.27
2022-10-19T02:58:15.543Z,6.20
2022-10-19T02:59:15.541Z,6.14
2022-10-19T03:00:15.518Z,6.14
2022-10-19T03:01:15.590Z,6.14
2022-10-19T03:02:15.497Z,6.14
2022-10-19T03:03:15.539Z,6.08
2022-10-19T03:04:15.484Z,6.09
2022-10-19T03:05:15.487Z,6.09
2022-10-19T03:06:15.470Z,6.11
2022-10-19T03:07:15.454Z,6.14
2022-10-19T03:08:15.433Z,6.09
2022-10-19T03:09:15.474Z,6.12
2022-10-19T03:10:15.414Z,6.14
2022-10-19T03:11:15.416Z,6.24
2022-10-19T03:12:15.395Z,6.30
2022-10-19T03:13:15.405Z,6.27
2022-10-19T03:14:15.372Z,6.30
2022-10-19T03:15:15.403Z,6.33
2022-10-19T03:16:15.367Z,6.30
2022-10-19T03:17:15.347Z,6.24
2022-10-19T03:18:15.334Z,6.22
2022-10-19T03:19:15.330Z,6.22
2022-10-19T03:20:15.299Z,6.22
2022-10-19T03:21:15.420Z,6.17
2022-10-19T03:22:15.285Z,6.11
2022-10-19T03:23:15.282Z,6.16
2022-10-19T03:24:15.263Z,6.17
2022-10-19T03:25:15.270Z,6.16
2022-10-19T03:26:15.249Z,6.19
2022-10-19T03:27:15.280Z,6.17
2022-10-19T03:28:15.221Z,6.16
2022-10-19T03:29:15.226Z,6.19
2022-10-19T03:30:15.202Z,6.22
2022-10-19T03:31:15.197Z,6.20
2022-10-19T03:32:15.185Z,6.22
2022-10-19T03:33:15.309Z,6.16
2022-10-19T03:34:15.165Z,6.09
2022-10-19T03:35:15.163Z,6.04
2022-10-19T03:36:15.153Z,6.04
2022-10-19T03:37:15.139Z,6.04
2022-10-19T03:38:15.132Z,6.02
2022-10-19T03:39:15.149Z,6.01
2022-10-19T03:40:15.096Z,5.98
2022-10-19T03:41:15.098Z,5.98
2022-10-19T03:42:15.094Z,5.98
2022-10-19T03:43:15.082Z,5.99
2022-10-19T03:44:15.064Z,5.94
2022-10-19T03:45:15.113Z,5.89
2022-10-19T03:46:15.047Z,5.91
2022-10-19T03:47:15.031Z,5.99
2022-10-19T03:48:15.019Z,5.99
2022-10-19T03:49:15.013Z,5.94
2022-10-19T03:50:14.987Z,5.90
2022-10-19T03:51:15.042Z,5.91
2022-10-19T03:52:14.970Z,5.86
2022-10-19T03:53:14.973Z,5.82
2022-10-19T03:54:14.947Z,5.76
2022-10-19T03:55:14.948Z,5.83
2022-10-19T03:56:14.925Z,5.86
2022-10-19T03:57:14.957Z,5.82
2022-10-19T03:58:14.902Z,5.82
2022-10-19T03:59:14.908Z,5.82
2022-10-19T04:00:14.894Z,5.84
2022-10-19T04:01:14.931Z,5.82
2022-10-19T04:02:14.865Z,5.82
2022-10-19T04:03:14.898Z,5.79
2022-10-19T04:04:14.839Z,5.79
2022-10-19T04:05:14.840Z,5.76
2022-10-19T04:06:17.033Z,5.80
2022-10-19T04:07:14.819Z,5.80
2022-10-19T04:08:14.802Z,5.80
2022-10-19T04:09:14.841Z,5.80
2022-10-19T04:10:14.771Z,5.82
2022-10-19T04:11:14.792Z,5.80
2022-10-19T04:12:14.763Z,5.73
2022-10-19T04:13:14.760Z,5.72
2022-10-19T04:14:22.657Z,5.71
2022-10-19T04:15:14.784Z,5.65
2022-10-19T04:16:14.725Z,5.68
2022-10-19T04:17:14.709Z,5.62
2022-10-19T04:18:14.692Z,5.59
2022-10-19T04:19:14.698Z,5.56
2022-10-19T04:20:14.669Z,5.54
2022-10-19T04:21:14.722Z,5.56
2022-10-19T04:22:14.657Z,5.59
2022-10-19T04:23:14.660Z,5.61
2022-10-19T04:24:14.637Z,5.57
2022-10-19T04:25:14.625Z,5.50
2022-10-19T04:26:14.606Z,5.44
2022-10-19T04:27:14.727Z,5.43
2022-10-19T04:28:14.581Z,5.36
2022-10-19T04:29:14.679Z,5.35
2022-10-19T04:30:14.572Z,5.29
2022-10-19T04:31:14.567Z,5.20
2022-10-19T04:32:14.543Z,5.26
2022-10-19T04:33:14.711Z,5.21
2022-10-19T04:34:14.533Z,5.18
2022-10-19T04:35:14.530Z,5.21
2022-10-19T04:36:14.505Z,5.21
2022-10-19T04:37:14.510Z,5.26
2022-10-19T04:38:14.534Z,5.23
2022-10-19T04:39:14.524Z,5.20
2022-10-19T04:40:15.088Z,5.20
2022-10-19T04:41:14.468Z,5.18
2022-10-19T04:42:14.452Z,5.20
2022-10-19T04:43:14.448Z,5.23
2022-10-19T04:44:14.472Z,5.23
2022-10-19T04:45:14.496Z,5.21
2022-10-19T04:46:14.392Z,5.26
2022-10-19T04:47:14.395Z,5.26
2022-10-19T04:48:15.216Z,5.25
2022-10-19T04:49:16.516Z,5.26
2022-10-19T04:50:14.358Z,5.25
2022-10-19T04:51:14.393Z,5.28
2022-10-19T04:52:14.340Z,5.26
2022-10-19T04:53:14.420Z,5.23
2022-10-19T04:54:14.319Z,5.23
2022-10-19T04:55:14.317Z,5.25
2022-10-19T04:56:14.294Z,5.26
2022-10-19T04:57:14.315Z,5.26
2022-10-19T04:58:14.270Z,5.21
2022-10-19T04:59:14.285Z,5.21
2022-10-19T05:00:14.249Z,5.25
2022-10-19T05:01:14.320Z,5.28
2022-10-19T05:02:14.242Z,5.26
2022-10-19T05:03:14.277Z,5.18
2022-10-19T05:04:14.207Z,5.15
2022-10-19T05:05:14.216Z,5.11
2022-10-19T05:06:14.183Z,5.12
2022-10-19T05:07:14.207Z,5.14
2022-10-19T05:08:14.158Z,5.18
2022-10-19T05:09:14.200Z,5.20
2022-10-19T05:10:14.136Z,5.21
2022-10-19T05:11:14.238Z,5.18
2022-10-19T05:12:14.120Z,5.12
2022-10-19T05:13:14.117Z,5.12
2022-10-19T05:14:14.159Z,5.10
2022-10-19T05:15:14.137Z,5.00
2022-10-19T05:16:14.074Z,4.99
2022-10-19T05:17:14.079Z,4.96
2022-10-19T05:18:14.051Z,4.94
2022-10-19T05:19:14.065Z,4.94
2022-10-19T05:20:14.093Z,4.94
2022-10-19T05:21:14.033Z,4.90
2022-10-19T05:22:14.019Z,4.89
2022-10-19T05:23:14.021Z,4.89
2022-10-19T05:24:13.991Z,4.86
2022-10-19T05:25:14.000Z,4.80
2022-10-19T05:26:13.995Z,4.77
2022-10-19T05:27:13.977Z,4.75
2022-10-19T05:28:13.976Z,4.73
2022-10-19T05:29:13.955Z,4.77
2022-10-19T05:30:13.932Z,4.78
2022-10-19T05:31:13.958Z,4.87
2022-10-19T05:32:13.905Z,4.94
2022-10-19T05:33:13.905Z,4.99
2022-10-19T05:34:13.884Z,5.04
2022-10-19T05:35:16.385Z,4.97
2022-10-19T05:36:13.861Z,4.97
2022-10-19T05:37:13.883Z,4.92
2022-10-19T05:38:13.846Z,4.97
2022-10-19T05:39:13.853Z,4.94
2022-10-19T05:40:13.819Z,4.97
2022-10-19T05:41:13.819Z,4.93
2022-10-19T05:42:13.833Z,4.93
2022-10-19T05:43:13.814Z,4.90
2022-10-19T05:44:13.777Z,4.86
2022-10-19T05:45:13.767Z,4.84
2022-10-19T05:46:13.765Z,4.82
2022-10-19T05:47:13.755Z,4.82
2022-10-19T05:48:13.775Z,4.82
2022-10-19T05:49:13.722Z,4.87
2022-10-19T05:50:13.723Z,4.90
2022-10-19T05:51:13.700Z,4.90
2022-10-19T05:52:13.714Z,4.86
2022-10-19T05:53:13.717Z,4.84
2022-10-19T05:54:13.692Z,4.82
2022-10-19T05:55:13.659Z,4.80
2022-10-19T05:56:13.681Z,4.75
2022-10-19T05:57:13.829Z,4.74
2022-10-19T05:58:13.643Z,4.73
2022-10-19T05:59:13.754Z,4.77
2022-10-19T06:00:13.624Z,4.80
2022-10-19T06:01:13.615Z,4.86
2022-10-19T06:02:13.658Z,4.90
2022-10-19T06:03:13.585Z,4.93
2022-10-19T06:04:13.601Z,4.96
2022-10-19T06:05:13.595Z,4.96
2022-10-19T06:06:13.565Z,4.99
2022-10-19T06:07:13.575Z,5.04
2022-10-19T06:08:13.534Z,5.10
2022-10-19T06:09:13.516Z,5.15
2022-10-19T06:10:13.534Z,5.21
2022-10-19T06:11:13.529Z,5.18
2022-10-19T06:12:15.760Z,5.21
2022-10-19T06:13:13.473Z,5.23
2022-10-19T06:14:13.483Z,5.29
2022-10-19T06:15:13.453Z,5.35
2022-10-19T06:16:13.451Z,5.41
2022-10-19T06:17:13.487Z,5.46
2022-10-19T06:18:13.446Z,5.47
2022-10-19T06:19:13.405Z,5.51
2022-10-19T06:20:13.404Z,5.57
2022-10-19T06:21:13.385Z,5.65
2022-10-19T06:22:13.402Z,5.68
2022-10-19T06:23:13.389Z,5.73
2022-10-19T06:24:13.369Z,5.80
2022-10-19T06:25:16.625Z,5.82
2022-10-19T06:26:13.364Z,5.86
2022-10-19T06:27:13.483Z,5.87
2022-10-19T06:28:13.326Z,5.90
2022-10-19T06:29:13.337Z,5.93
2022-10-19T06:30:13.436Z,5.97
2022-10-19T06:31:13.277Z,6.05
2022-10-19T06:32:13.285Z,6.07
2022-10-19T06:33:13.276Z,6.09
2022-10-19T06:34:13.378Z,6.04
2022-10-19T06:35:13.261Z,6.07
2022-10-19T06:36:13.249Z,6.07
2022-10-19T06:37:13.214Z,6.09
2022-10-19T06:38:13.228Z,6.08
2022-10-19T06:39:13.216Z,6.07
2022-10-19T06:40:13.238Z,6.04
2022-10-19T06:41:13.239Z,6.02
2022-10-19T06:42:13.174Z,6.05
2022-10-19T06:43:13.170Z,6.08
2022-10-19T06:44:13.152Z,6.12
2022-10-19T06:45:13.133Z,6.16
2022-10-19T06:46:13.135Z,6.17
2022-10-19T06:47:13.163Z,6.17
2022-10-19T06:48:13.114Z,6.19
2022-10-19T06:49:13.086Z,6.22
2022-10-19T06:50:13.093Z,6.22
2022-10-19T06:51:13.075Z,6.22
2022-10-19T06:52:13.074Z,6.30
2022-10-19T06:53:13.083Z,6.31
2022-10-19T06:54:13.151Z,6.31
2022-10-19T06:55:13.036Z,6.35
2022-10-19T06:56:13.044Z,6.36
2022-10-19T06:57:13.009Z,6.36
2022-10-19T06:58:13.010Z,6.38
2022-10-19T06:59:14.092Z,6.38
2022-10-19T07:00:12.997Z,6.39
2022-10-19T07:01:13.045Z,6.41
2022-10-19T07:02:12.968Z,6.44
2022-10-19T07:03:12.948Z,6.45
2022-10-19T07:04:12.956Z,6.46
2022-10-19T07:05:12.965Z,6.49
2022-10-19T07:06:12.942Z,6.45
2022-10-19T07:07:12.901Z,6.44
2022-10-19T07:08:12.963Z,6.46
2022-10-19T07:09:12.878Z,6.48
2022-10-19T07:10:12.882Z,6.52
2022-10-19T07:11:12.902Z,6.54
2022-10-19T07:12:12.856Z,6.59
2022-10-19T07:13:12.842Z,6.62
2022-10-19T07:14:12.856Z,6.60
2022-10-19T07:15:12.816Z,6.64
2022-10-19T07:16:16.146Z,6.66
2022-10-19T07:17:12.830Z,6.66
2022-10-19T07:18:12.831Z,6.72
2022-10-19T07:19:12.771Z,6.70
2022-10-19T07:20:12.777Z,6.75
2022-10-19T07:21:12.756Z,6.75
2022-10-19T07:22:18.637Z,6.82
2022-10-19T07:23:12.768Z,6.84
2022-10-19T07:24:12.732Z,6.92
2022-10-19T07:25:12.733Z,6.97
2022-10-19T07:26:12.718Z,7.02
2022-10-19T07:27:13.010Z,7.03
2022-10-19T07:28:12.690Z,7.13
2022-10-19T07:29:12.696Z,7.18
2022-10-19T07:30:12.684Z,7.21
2022-10-19T07:31:12.646Z,7.31
2022-10-19T07:32:12.650Z,7.38
2022-10-19T07:33:12.644Z,7.39
2022-10-19T07:34:12.628Z,7.47
2022-10-19T07:35:12.641Z,7.56
2022-10-19T07:36:12.610Z,7.63
2022-10-19T07:37:12.579Z,7.70
2022-10-19T07:38:12.587Z,7.75
2022-10-19T07:39:12.575Z,7.75
2022-10-19T07:40:12.564Z,7.80
2022-10-19T07:41:12.588Z,7.83
2022-10-19T07:42:12.643Z,7.87
2022-10-19T07:43:12.529Z,7.91
2022-10-19T07:44:15.549Z,7.98
2022-10-19T07:45:12.501Z,8.03
2022-10-19T07:46:12.512Z,8.09
2022-10-19T07:47:12.517Z,8.15
2022-10-19T07:48:12.479Z,8.23
2022-10-19T07:49:12.463Z,8.26
2022-10-19T07:50:12.457Z,8.30
2022-10-19T07:51:12.435Z,8.31
2022-10-19T07:52:12.439Z,8.33
2022-10-19T07:53:12.444Z,8.34
2022-10-19T07:54:12.414Z,8.36
2022-10-19T07:55:12.393Z,8.37
2022-10-19T07:56:12.417Z,8.42
2022-10-19T07:57:12.373Z,8.48
2022-10-19T07:58:12.387Z,8.48
2022-10-19T07:59:12.382Z,8.46
2022-10-19T08:00:12.351Z,8.51
2022-10-19T08:01:12.326Z,8.51
2022-10-19T08:02:12.392Z,8.52
2022-10-19T08:03:57.160Z,8.51
2022-10-19T08:04:59.445Z,8.58
2022-10-19T08:05:12.891Z,8.64
2022-10-19T08:06:12.294Z,8.67
2022-10-19T08:07:12.273Z,8.70
2022-10-19T08:08:12.267Z,8.73
2022-10-19T08:09:27.780Z,8.73
2022-10-19T08:10:12.279Z,8.79
2022-10-19T08:11:12.230Z,8.82
2022-10-19T08:12:15.080Z,8.85
2022-10-19T08:13:12.197Z,8.85
2022-10-19T08:14:12.204Z,8.82
2022-10-19T08:15:12.194Z,8.85
2022-10-19T08:16:12.205Z,8.87
2022-10-19T08:17:12.154Z,8.85
2022-10-19T08:18:12.170Z,8.88
2022-10-19T08:19:12.151Z,8.88
2022-10-19T08:20:12.142Z,8.91
2022-10-19T08:21:12.119Z,8.92
2022-10-19T08:22:12.148Z,8.91
2022-10-19T08:23:12.099Z,8.91
2022-10-19T08:24:12.098Z,8.88
2022-10-19T08:25:12.081Z,8.88
2022-10-19T08:26:12.075Z,8.88
2022-10-19T08:27:12.052Z,8.92
2022-10-19T08:28:12.083Z,8.97
2022-10-19T08:29:12.032Z,8.99
2022-10-19T08:30:12.034Z,9.04
2022-10-19T08:31:12.009Z,9.03
2022-10-19T08:32:12.014Z,9.03
2022-10-19T08:33:11.983Z,9.06
2022-10-19T08:34:12.014Z,9.13
2022-10-19T08:35:11.963Z,9.13
2022-10-19T08:36:11.970Z,9.16
2022-10-19T08:37:25.654Z,9.21
2022-10-19T08:38:11.953Z,9.26
2022-10-19T08:39:11.949Z,9.31
2022-10-19T08:40:11.939Z,9.32
2022-10-19T08:41:11.903Z,9.37
2022-10-19T08:42:11.906Z,9.43
2022-10-19T08:43:11.881Z,9.44
2022-10-19T08:44:11.879Z,9.50
2022-10-19T08:45:11.881Z,9.50
2022-10-19T08:46:11.861Z,9.54
2022-10-19T08:47:12.537Z,9.56
2022-10-19T08:48:11.979Z,9.62
2022-10-19T08:49:11.843Z,9.69
2022-10-19T08:50:11.840Z,9.79
2022-10-19T08:51:11.820Z,9.82
2022-10-19T08:52:11.794Z,9.86
2022-10-19T08:53:11.792Z,9.91
2022-10-19T08:54:11.774Z,9.98
2022-10-19T08:55:15.039Z,9.99
2022-10-19T08:56:15.027Z,10.05
2022-10-19T08:57:11.740Z,10.15
2022-10-19T08:58:11.751Z,10.20
2022-10-19T08:59:11.706Z,10.31
2022-10-19T09:00:11.717Z,10.37
2022-10-19T09:01:11.742Z,10.41
2022-10-19T09:02:11.688Z,10.41
2022-10-19T09:03:11.694Z,10.35
2022-10-19T09:04:11.672Z,10.35
2022-10-19T09:05:11.689Z,10.37
2022-10-19T09:06:11.649Z,10.37
2022-10-19T09:07:11.669Z,10.35
2022-10-19T09:08:16.696Z,10.35
2022-10-19T09:09:11.606Z,10.37
2022-10-19T09:10:11.599Z,10.42
2022-10-19T09:11:11.580Z,10.46
2022-10-19T09:12:11.636Z,10.49
2022-10-19T09:13:11.563Z,10.53
2022-10-19T09:14:11.561Z,10.61
2022-10-19T09:15:11.553Z,10.74
2022-10-19T09:16:11.539Z,10.78
2022-10-19T09:17:11.512Z,10.90
2022-10-19T09:18:11.542Z,10.99
2022-10-19T09:19:11.544Z,11.02
2022-10-19T09:20:11.540Z,11.11
2022-10-19T09:21:11.482Z,11.15
2022-10-19T09:22:11.473Z,11.25
2022-10-19T09:23:13.483Z,11.26
2022-10-19T09:24:11.453Z,11.26
2022-10-19T09:25:11.466Z,11.30
2022-10-19T09:26:11.431Z,11.36
2022-10-19T09:27:11.426Z,11.41
2022-10-19T09:28:11.410Z,11.43
2022-10-19T09:29:11.418Z,11.40
2022-10-19T09:30:11.395Z,11.41
2022-10-19T09:31:11.370Z,11.40
2022-10-19T09:32:11.369Z,11.43
2022-10-19T09:33:15.253Z,11.44
2022-10-19T09:34:11.367Z,11.45
2022-10-19T09:35:11.326Z,11.48
2022-10-19T09:36:22.301Z,11.52
2022-10-19T09:37:15.989Z,11.59
2022-10-19T09:38:11.309Z,11.60
2022-10-19T09:39:11.281Z,11.62
2022-10-19T09:40:11.306Z,11.68
2022-10-19T09:41:11.258Z,11.77
2022-10-19T09:42:11.288Z,11.77
2022-10-19T09:43:11.238Z,11.81
2022-10-19T09:44:11.237Z,11.84
2022-10-19T09:45:11.259Z,11.84
2022-10-19T09:46:19.477Z,11.87
2022-10-19T09:47:13.672Z,11.87
2022-10-19T09:48:13.140Z,11.90
2022-10-19T09:49:11.192Z,11.90
2022-10-19T09:50:11.179Z,11.94
2022-10-19T09:51:11.175Z,11.94
2022-10-19T09:52:11.177Z,11.99
2022-10-19T09:53:11.132Z,12.03
2022-10-19T09:54:11.132Z,12.09
2022-10-19T09:55:11.107Z,12.20
2022-10-19T09:56:11.109Z,12.27
2022-10-19T09:57:11.163Z,12.36
2022-10-19T09:58:11.107Z,12.49
2022-10-19T09:59:11.063Z,12.61
2022-10-19T10:00:11.081Z,12.78
2022-10-19T10:01:11.061Z,12.91
2022-10-19T10:02:11.038Z,13.01
2022-10-19T10:03:11.183Z,13.09
2022-10-19T10:04:11.024Z,13.11
2022-10-19T10:05:11.011Z,13.11
2022-10-19T10:06:10.988Z,13.12
2022-10-19T10:07:11.023Z,13.05
2022-10-19T10:08:10.981Z,12.95
2022-10-19T10:09:11.241Z,12.97
2022-10-19T10:10:10.954Z,12.94
2022-10-19T10:11:10.944Z,12.97
2022-10-19T10:12:10.920Z,13.01
2022-10-19T10:13:10.956Z,12.98
2022-10-19T10:14:10.904Z,12.97
2022-10-19T10:15:11.025Z,13.00
2022-10-19T10:16:10.879Z,13.03
2022-10-19T10:17:10.893Z,13.08
2022-10-19T10:18:10.877Z,13.09
2022-10-19T10:19:10.862Z,13.05
2022-10-19T10:20:10.838Z,13.04
2022-10-19T10:21:10.880Z,12.98
2022-10-19T10:22:10.813Z,12.93
2022-10-19T10:23:10.823Z,12.93
2022-10-19T10:24:10.790Z,12.94
2022-10-19T10:25:10.847Z,12.97
2022-10-19T10:26:10.769Z,13.01
2022-10-19T10:27:10.835Z,13.01
2022-10-19T10:28:10.753Z,13.04
2022-10-19T10:29:10.786Z,13.09
2022-10-19T10:30:10.728Z,13.09
2022-10-19T10:31:10.748Z,13.09
2022-10-19T10:32:10.739Z,13.04
2022-10-19T10:33:26.404Z,13.04
2022-10-19T10:34:22.666Z,13.20
2022-10-19T10:35:10.731Z,13.30
2022-10-19T10:36:10.668Z,13.38
2022-10-19T10:37:10.673Z,13.50
2022-10-19T10:38:10.650Z,13.65
2022-10-19T10:39:10.683Z,13.70
2022-10-19T10:40:10.623Z,13.77
2022-10-19T10:41:10.623Z,13.87
2022-10-19T10:42:10.609Z,13.95
2022-10-19T10:43:10.600Z,13.95
2022-10-19T10:44:10.799Z,13.92
2022-10-19T10:45:10.603Z,14.10
2022-10-19T10:46:10.563Z,14.12
2022-10-19T10:47:10.559Z,14.18
2022-10-19T10:48:10.536Z,14.20
2022-10-19T10:49:10.542Z,14.12
2022-10-19T10:50:10.511Z,14.15
2022-10-19T10:51:10.543Z,14.12
2022-10-19T10:52:10.502Z,14.18
2022-10-19T10:53:10.493Z,14.17
2022-10-19T10:54:10.473Z,14.28
2022-10-19T10:55:10.506Z,14.33
2022-10-19T10:56:10.445Z,14.44
2022-10-19T10:57:10.514Z,14.50
2022-10-19T10:58:10.428Z,14.59
2022-10-19T10:59:10.575Z,14.63
2022-10-19T11:00:10.420Z,14.72
2022-10-19T11:01:10.409Z,14.89
2022-10-19T11:02:10.525Z,14.96
2022-10-19T11:03:10.413Z,15.06
2022-10-19T11:04:10.365Z,14.89
2022-10-19T11:05:10.376Z,14.89
2022-10-19T11:06:10.351Z,14.92
2022-10-19T11:07:10.341Z,14.91
2022-10-19T11:08:10.325Z,14.92
2022-10-19T11:09:10.408Z,14.88
2022-10-19T11:10:10.295Z,14.88
2022-10-19T11:11:10.301Z,14.82
2022-10-19T11:12:10.279Z,14.96
2022-10-19T11:13:10.284Z,15.10
2022-10-19T11:14:10.256Z,15.29
2022-10-19T11:15:10.289Z,15.15
2022-10-19T11:16:10.238Z,15.10
2022-10-19T11:17:10.234Z,15.14
2022-10-19T11:18:10.212Z,15.09
2022-10-19T11:19:10.270Z,14.89
2022-10-19T11:20:10.189Z,14.89
2022-10-19T11:21:10.234Z,15.07
2022-10-19T11:22:10.166Z,15.21
2022-10-19T11:23:10.175Z,15.31
2022-10-19T11:24:10.148Z,15.27
2022-10-19T11:25:10.147Z,15.06
2022-10-19T11:26:10.129Z,14.92
2022-10-19T11:27:10.154Z,14.79
2022-10-19T11:28:10.100Z,14.85
2022-10-19T11:29:10.107Z,15.02
2022-10-19T11:30:10.080Z,15.17
2022-10-19T11:31:10.092Z,15.35
2022-10-19T11:32:10.060Z,15.52
2022-10-19T11:33:10.082Z,15.68
2022-10-19T11:34:10.041Z,15.67
2022-10-19T11:35:10.040Z,15.64
2022-10-19T11:36:10.016Z,15.55
2022-10-19T11:37:10.031Z,15.43
2022-10-19T11:38:29.527Z,15.46
2022-10-19T11:39:10.036Z,15.55
2022-10-19T11:40:09.973Z,15.55
2022-10-19T11:41:17.843Z,15.35
2022-10-19T11:42:09.955Z,15.36
2022-10-19T11:43:09.951Z,15.44
2022-10-19T11:44:09.936Z,15.31
2022-10-19T11:45:09.952Z,15.25
2022-10-19T11:46:09.906Z,15.27
2022-10-19T11:47:09.921Z,15.27
2022-10-19T11:48:09.883Z,15.22
2022-10-19T11:49:09.891Z,15.10
2022-10-19T11:51:20.775Z,15.06
2022-10-19T11:52:09.853Z,14.94
2022-10-19T11:53:09.850Z,14.86
2022-10-19T11:54:14.435Z,14.91
2022-10-19T11:55:09.820Z,14.94
2022-10-19T11:56:09.850Z,15.02
2022-10-19T11:57:11.624Z,15.14
2022-10-19T11:58:09.776Z,15.29
2022-10-19T11:59:09.852Z,15.44
2022-10-19T12:00:15.470Z,15.57
2022-10-19T12:01:09.800Z,15.67
2022-10-19T12:02:09.771Z,15.70
2022-10-19T12:03:09.773Z,15.67
2022-10-19T12:04:09.709Z,15.58
2022-10-19T12:05:09.719Z,15.49
2022-10-19T12:06:09.697Z,15.37
2022-10-19T12:07:09.698Z,15.44
2022-10-19T12:08:09.756Z,15.54
2022-10-19T12:09:09.791Z,15.55
2022-10-19T12:10:09.645Z,15.46
2022-10-19T12:11:09.699Z,15.42
2022-10-19T12:12:09.636Z,15.47
2022-10-19T12:13:09.645Z,15.54
2022-10-19T12:14:09.651Z,15.59
2022-10-19T12:15:09.629Z,15.64
2022-10-19T12:16:09.580Z,15.67
2022-10-19T12:17:09.658Z,15.77
2022-10-19T12:18:09.571Z,15.83
2022-10-19T12:19:09.566Z,15.88
2022-10-19T12:20:09.540Z,15.86
2022-10-19T12:21:09.675Z,15.84
2022-10-19T12:22:09.521Z,15.88
2022-10-19T12:23:09.525Z,15.95
2022-10-19T12:24:09.495Z,16.02
2022-10-19T12:25:09.505Z,16.01
2022-10-19T12:26:09.529Z,16.04
2022-10-19T12:27:09.610Z,15.97
2022-10-19T12:28:09.455Z,15.80
2022-10-19T12:29:09.468Z,15.77
2022-10-19T12:30:09.497Z,15.79
2022-10-19T12:31:09.434Z,15.77
2022-10-19T12:32:09.423Z,15.59
2022-10-19T12:33:09.472Z,15.47
2022-10-19T12:34:09.389Z,15.47
2022-10-19T12:35:09.485Z,15.39
2022-10-19T12:36:09.372Z,15.33
2022-10-19T12:37:09.395Z,15.36
2022-10-19T12:38:09.350Z,15.43
2022-10-19T12:39:09.382Z,15.54
2022-10-19T12:40:09.378Z,15.57
2022-10-19T12:41:09.326Z,15.68
2022-10-19T12:42:09.299Z,15.68
2022-10-19T12:43:09.342Z,15.70
2022-10-19T12:44:09.279Z,15.70
2022-10-19T12:45:09.304Z,15.75
2022-10-19T12:46:09.265Z,15.77
2022-10-19T12:47:09.264Z,15.76
2022-10-19T12:48:09.242Z,15.80
2022-10-19T12:49:09.245Z,15.76
2022-10-19T12:50:09.384Z,15.76
2022-10-19T12:51:09.255Z,15.67
2022-10-19T12:52:09.205Z,15.65
2022-10-19T12:53:09.194Z,15.68
2022-10-19T12:54:09.190Z,15.67
2022-10-19T12:55:09.176Z,15.64
2022-10-19T12:56:09.151Z,15.68
2022-10-19T12:57:09.197Z,15.75
2022-10-19T12:58:09.126Z,15.62
2022-10-19T12:59:09.132Z,15.57
2022-10-19T13:00:09.241Z,15.51
2022-10-19T13:01:09.164Z,15.44
2022-10-19T13:02:09.084Z,15.52
2022-10-19T13:03:09.116Z,15.44
2022-10-19T13:04:09.080Z,15.47
2022-10-19T13:05:09.071Z,15.44
2022-10-19T13:06:09.046Z,15.40
2022-10-19T13:07:09.069Z,15.36
2022-10-19T13:08:12.129Z,15.33
2022-10-19T13:09:09.138Z,15.25
2022-10-19T13:10:09.043Z,15.21